sensor_id;sensor_type;location;lat;lon;timestamp;P1;durP1;ratioP1;P2;durP2;ratioP2
78985;SDS011;68384;55.750;48.746;2023-07-02T00:00:57;5.97;;;4.70;;
78985;SDS011;68384;55.750;48.746;2023-07-02T00:02:01;6.13;;;4.47;;
78985;SDS011;68384;55.750;48.746;2023-07-02T00:03:04;4.50;;;4.00;;
78985;SDS011;68384;55.750;48.746;2023-07-02T00:04:08;5.60;;;4.53;;
78985;SDS011;68384;55.750;48.746;2023-07-02T00:05:12;6.18;;;4.60;;
78985;SDS011;68384;55.750;48.746;2023-07-02T00:06:16;6.47;;;4.30;;
78985;SDS011;68384;55.750;48.746;2023-07-02T00:07:20;6.53;;;5.35;;
78985;SDS011;68384;55.750;48.746;2023-07-02T00:08:24;6.78;;;4.82;;
78985;SDS011;68384;55.750;48.746;2023-07-02T00:09:27;6.15;;;4.38;;
78985;SDS011;68384;55.750;48.746;2023-07-02T00:10:31;7.00;;;5.10;;
78985;SDS011;68384;55.750;48.746;2023-07-02T00:11:34;5.72;;;4.97;;
78985;SDS011;68384;55.750;48.746;2023-07-02T00:12:40;7.70;;;5.05;;
78985;SDS011;68384;55.750;48.746;2023-07-02T00:13:43;7.47;;;5.38;;
78985;SDS011;68384;55.750;48.746;2023-07-02T00:14:47;7.63;;;5.57;;
78985;SDS011;68384;55.750;48.746;2023-07-02T00:15:50;6.75;;;4.95;;
78985;SDS011;68384;55.750;48.746;2023-07-02T00:16:54;7.30;;;4.97;;
78985;SDS011;68384;55.750;48.746;2023-07-02T00:17:57;8.85;;;5.03;;
78985;SDS011;68384;55.750;48.746;2023-07-02T00:19:01;7.13;;;4.90;;
78985;SDS011;68384;55.750;48.746;2023-07-02T00:20:04;6.18;;;5.57;;
78985;SDS011;68384;55.750;48.746;2023-07-02T00:21:15;5.60;;;5.00;;
78985;SDS011;68384;55.750;48.746;2023-07-02T00:22:18;6.85;;;4.93;;
78985;SDS011;68384;55.750;48.746;2023-07-02T00:23:23;8.40;;;5.03;;
78985;SDS011;68384;55.750;48.746;2023-07-02T00:24:25;6.10;;;4.97;;
78985;SDS011;68384;55.750;48.746;2023-07-02T00:25:31;6.22;;;5.30;;
78985;SDS011;68384;55.750;48.746;2023-07-02T00:26:34;6.97;;;5.30;;
78985;SDS011;68384;55.750;48.746;2023-07-02T00:27:40;7.65;;;5.82;;
78985;SDS011;68384;55.750;48.746;2023-07-02T00:28:43;9.27;;;5.47;;
78985;SDS011;68384;55.750;48.746;2023-07-02T00:29:47;9.00;;;5.68;;
78985;SDS011;68384;55.750;48.746;2023-07-02T00:30:51;7.57;;;5.45;;
78985;SDS011;68384;55.750;48.746;2023-07-02T00:31:54;6.75;;;5.63;;
78985;SDS011;68384;55.750;48.746;2023-07-02T00:32:58;7.22;;;5.38;;
78985;SDS011;68384;55.750;48.746;2023-07-02T00:34:02;7.60;;;5.78;;
78985;SDS011;68384;55.750;48.746;2023-07-02T00:35:06;6.00;;;5.28;;
78985;SDS011;68384;55.750;48.746;2023-07-02T00:36:09;8.80;;;5.72;;
78985;SDS011;68384;55.750;48.746;2023-07-02T00:37:16;6.70;;;5.03;;
78985;SDS011;68384;55.750;48.746;2023-07-02T00:38:19;6.15;;;5.35;;
78985;SDS011;68384;55.750;48.746;2023-07-02T00:39:22;5.82;;;5.22;;
78985;SDS011;68384;55.750;48.746;2023-07-02T00:40:26;7.72;;;5.53;;
78985;SDS011;68384;55.750;48.746;2023-07-02T00:41:31;6.43;;;4.93;;
78985;SDS011;68384;55.750;48.746;2023-07-02T00:42:33;5.82;;;5.22;;
78985;SDS011;68384;55.750;48.746;2023-07-02T00:43:39;9.57;;;4.72;;
78985;SDS011;68384;55.750;48.746;2023-07-02T00:44:45;7.65;;;5.30;;
78985;SDS011;68384;55.750;48.746;2023-07-02T00:45:49;5.78;;;5.18;;
78985;SDS011;68384;55.750;48.746;2023-07-02T00:46:52;5.75;;;4.97;;
78985;SDS011;68384;55.750;48.746;2023-07-02T00:47:57;7.22;;;5.53;;
78985;SDS011;68384;55.750;48.746;2023-07-02T00:50:05;5.53;;;4.38;;
78985;SDS011;68384;55.750;48.746;2023-07-02T00:51:11;6.10;;;5.00;;
78985;SDS011;68384;55.750;48.746;2023-07-02T00:52:17;6.68;;;5.32;;
78985;SDS011;68384;55.750;48.746;2023-07-02T00:53:22;8.23;;;5.63;;
78985;SDS011;68384;55.750;48.746;2023-07-02T00:54:27;8.15;;;5.00;;
78985;SDS011;68384;55.750;48.746;2023-07-02T00:55:30;7.05;;;5.15;;
78985;SDS011;68384;55.750;48.746;2023-07-02T00:56:34;8.77;;;5.55;;
78985;SDS011;68384;55.750;48.746;2023-07-02T00:57:37;5.82;;;5.05;;
78985;SDS011;68384;55.750;48.746;2023-07-02T00:58:45;6.45;;;5.18;;
78985;SDS011;68384;55.750;48.746;2023-07-02T00:59:50;6.03;;;4.90;;
78985;SDS011;68384;55.750;48.746;2023-07-02T01:00:55;7.30;;;5.63;;
78985;SDS011;68384;55.750;48.746;2023-07-02T01:01:58;6.72;;;5.82;;
78985;SDS011;68384;55.750;48.746;2023-07-02T01:03:02;6.63;;;5.18;;
78985;SDS011;68384;55.750;48.746;2023-07-02T01:04:06;6.78;;;4.93;;
78985;SDS011;68384;55.750;48.746;2023-07-02T01:05:14;6.43;;;5.30;;
78985;SDS011;68384;55.750;48.746;2023-07-02T01:06:17;7.40;;;5.53;;
78985;SDS011;68384;55.750;48.746;2023-07-02T01:07:22;6.30;;;5.65;;
78985;SDS011;68384;55.750;48.746;2023-07-02T01:08:25;5.90;;;5.22;;
78985;SDS011;68384;55.750;48.746;2023-07-02T01:09:29;11.90;;;5.65;;
78985;SDS011;68384;55.750;48.746;2023-07-02T01:10:32;6.53;;;5.70;;
78985;SDS011;68384;55.750;48.746;2023-07-02T01:11:38;6.45;;;5.28;;
78985;SDS011;68384;55.750;48.746;2023-07-02T01:12:43;5.95;;;5.35;;
78985;SDS011;68384;55.750;48.746;2023-07-02T01:13:50;7.25;;;5.80;;
78985;SDS011;68384;55.750;48.746;2023-07-02T01:14:58;6.80;;;5.35;;
78985;SDS011;68384;55.750;48.746;2023-07-02T01:16:06;8.45;;;5.15;;
78985;SDS011;68384;55.750;48.746;2023-07-02T01:17:09;7.38;;;5.90;;
78985;SDS011;68384;55.750;48.746;2023-07-02T01:18:13;6.78;;;5.32;;
78985;SDS011;68384;55.750;48.746;2023-07-02T01:19:18;6.25;;;5.50;;
78985;SDS011;68384;55.750;48.746;2023-07-02T01:20:26;8.20;;;5.70;;
78985;SDS011;68384;55.750;48.746;2023-07-02T01:21:32;6.40;;;4.95;;
78985;SDS011;68384;55.750;48.746;2023-07-02T01:22:36;6.63;;;5.93;;
78985;SDS011;68384;55.750;48.746;2023-07-02T01:23:40;7.38;;;5.50;;
78985;SDS011;68384;55.750;48.746;2023-07-02T01:24:45;11.05;;;5.78;;
78985;SDS011;68384;55.750;48.746;2023-07-02T01:25:51;7.18;;;5.22;;
78985;SDS011;68384;55.750;48.746;2023-07-02T01:26:55;8.63;;;5.97;;
78985;SDS011;68384;55.750;48.746;2023-07-02T01:27:58;6.90;;;5.90;;
78985;SDS011;68384;55.750;48.746;2023-07-02T01:29:12;7.28;;;5.13;;
78985;SDS011;68384;55.750;48.746;2023-07-02T01:30:18;7.10;;;6.30;;
78985;SDS011;68384;55.750;48.746;2023-07-02T01:31:23;8.48;;;5.75;;
78985;SDS011;68384;55.750;48.746;2023-07-02T01:32:27;8.52;;;5.63;;
78985;SDS011;68384;55.750;48.746;2023-07-02T01:33:32;7.25;;;5.35;;
78985;SDS011;68384;55.750;48.746;2023-07-02T01:34:34;7.35;;;5.32;;
78985;SDS011;68384;55.750;48.746;2023-07-02T01:35:40;6.93;;;5.22;;
78985;SDS011;68384;55.750;48.746;2023-07-02T01:36:44;6.85;;;5.47;;
78985;SDS011;68384;55.750;48.746;2023-07-02T01:37:48;6.95;;;5.40;;
78985;SDS011;68384;55.750;48.746;2023-07-02T01:38:51;7.45;;;5.18;;
78985;SDS011;68384;55.750;48.746;2023-07-02T01:39:55;7.40;;;5.80;;
78985;SDS011;68384;55.750;48.746;2023-07-02T01:40:58;7.90;;;6.07;;
78985;SDS011;68384;55.750;48.746;2023-07-02T01:42:07;6.80;;;5.38;;
78985;SDS011;68384;55.750;48.746;2023-07-02T01:43:11;10.75;;;5.60;;
78985;SDS011;68384;55.750;48.746;2023-07-02T01:44:15;6.32;;;4.95;;
78985;SDS011;68384;55.750;48.746;2023-07-02T01:45:18;7.10;;;5.97;;
78985;SDS011;68384;55.750;48.746;2023-07-02T01:46:22;8.23;;;5.97;;
78985;SDS011;68384;55.750;48.746;2023-07-02T01:47:25;6.47;;;5.22;;
78985;SDS011;68384;55.750;48.746;2023-07-02T01:48:29;6.13;;;5.28;;
78985;SDS011;68384;55.750;48.746;2023-07-02T01:49:32;9.85;;;6.10;;
78985;SDS011;68384;55.750;48.746;2023-07-02T01:50:36;9.63;;;5.47;;
78985;SDS011;68384;55.750;48.746;2023-07-02T01:51:41;7.38;;;5.00;;
78985;SDS011;68384;55.750;48.746;2023-07-02T01:52:48;7.60;;;5.82;;
78985;SDS011;68384;55.750;48.746;2023-07-02T01:53:51;8.77;;;5.20;;
78985;SDS011;68384;55.750;48.746;2023-07-02T01:54:55;7.65;;;5.60;;
78985;SDS011;68384;55.750;48.746;2023-07-02T01:55:58;6.80;;;5.75;;
78985;SDS011;68384;55.750;48.746;2023-07-02T01:57:02;7.25;;;5.00;;
78985;SDS011;68384;55.750;48.746;2023-07-02T01:58:06;7.63;;;5.38;;
78985;SDS011;68384;55.750;48.746;2023-07-02T01:59:10;7.47;;;5.45;;
78985;SDS011;68384;55.750;48.746;2023-07-02T02:00:13;7.28;;;5.57;;
78985;SDS011;68384;55.750;48.746;2023-07-02T02:01:17;8.70;;;5.45;;
78985;SDS011;68384;55.750;48.746;2023-07-02T02:02:21;7.10;;;5.40;;
78985;SDS011;68384;55.750;48.746;2023-07-02T02:03:24;8.88;;;5.78;;
78985;SDS011;68384;55.750;48.746;2023-07-02T02:04:28;6.72;;;5.38;;
78985;SDS011;68384;55.750;48.746;2023-07-02T02:05:32;7.45;;;5.07;;
78985;SDS011;68384;55.750;48.746;2023-07-02T02:06:35;6.28;;;5.25;;
78985;SDS011;68384;55.750;48.746;2023-07-02T02:07:41;6.07;;;4.78;;
78985;SDS011;68384;55.750;48.746;2023-07-02T02:08:46;6.28;;;5.38;;
78985;SDS011;68384;55.750;48.746;2023-07-02T02:09:50;7.22;;;5.40;;
78985;SDS011;68384;55.750;48.746;2023-07-02T02:10:54;7.30;;;5.82;;
78985;SDS011;68384;55.750;48.746;2023-07-02T02:11:58;8.60;;;5.50;;
78985;SDS011;68384;55.750;48.746;2023-07-02T02:13:01;7.95;;;6.07;;
78985;SDS011;68384;55.750;48.746;2023-07-02T02:14:05;6.40;;;5.05;;
78985;SDS011;68384;55.750;48.746;2023-07-02T02:16:19;6.75;;;5.05;;
78985;SDS011;68384;55.750;48.746;2023-07-02T02:17:23;8.52;;;5.50;;
78985;SDS011;68384;55.750;48.746;2023-07-02T02:18:27;6.53;;;5.13;;
78985;SDS011;68384;55.750;48.746;2023-07-02T02:19:49;7.88;;;5.32;;
78985;SDS011;68384;55.750;48.746;2023-07-02T02:20:53;5.43;;;4.47;;
78985;SDS011;68384;55.750;48.746;2023-07-02T02:21:56;6.43;;;5.20;;
78985;SDS011;68384;55.750;48.746;2023-07-02T02:23:02;5.90;;;4.97;;
78985;SDS011;68384;55.750;48.746;2023-07-02T02:24:05;7.25;;;5.57;;
78985;SDS011;68384;55.750;48.746;2023-07-02T02:25:10;6.93;;;5.68;;
78985;SDS011;68384;55.750;48.746;2023-07-02T02:26:13;6.75;;;5.57;;
78985;SDS011;68384;55.750;48.746;2023-07-02T02:27:17;6.72;;;5.32;;
78985;SDS011;68384;55.750;48.746;2023-07-02T02:28:20;6.20;;;5.15;;
78985;SDS011;68384;55.750;48.746;2023-07-02T02:29:24;6.30;;;5.00;;
78985;SDS011;68384;55.750;48.746;2023-07-02T02:30:27;5.93;;;5.28;;
78985;SDS011;68384;55.750;48.746;2023-07-02T02:31:32;8.50;;;5.50;;
78985;SDS011;68384;55.750;48.746;2023-07-02T02:32:36;5.68;;;5.07;;
78985;SDS011;68384;55.750;48.746;2023-07-02T02:33:43;6.35;;;5.35;;
78985;SDS011;68384;55.750;48.746;2023-07-02T02:34:47;6.90;;;5.30;;
78985;SDS011;68384;55.750;48.746;2023-07-02T02:35:51;6.35;;;5.55;;
78985;SDS011;68384;55.750;48.746;2023-07-02T02:36:54;6.18;;;4.65;;
78985;SDS011;68384;55.750;48.746;2023-07-02T02:38:00;6.30;;;4.90;;
78985;SDS011;68384;55.750;48.746;2023-07-02T02:39:06;5.68;;;4.45;;
78985;SDS011;68384;55.750;48.746;2023-07-02T02:40:11;7.82;;;4.88;;
78985;SDS011;68384;55.750;48.746;2023-07-02T02:41:15;6.80;;;5.07;;
78985;SDS011;68384;55.750;48.746;2023-07-02T02:42:24;5.78;;;5.10;;
78985;SDS011;68384;55.750;48.746;2023-07-02T02:43:28;6.35;;;5.03;;
78985;SDS011;68384;55.750;48.746;2023-07-02T02:44:32;6.05;;;4.60;;
78985;SDS011;68384;55.750;48.746;2023-07-02T02:45:35;6.35;;;5.40;;
78985;SDS011;68384;55.750;48.746;2023-07-02T02:46:39;5.80;;;4.57;;
78985;SDS011;68384;55.750;48.746;2023-07-02T02:47:42;7.80;;;4.68;;
78985;SDS011;68384;55.750;48.746;2023-07-02T02:48:46;6.18;;;5.57;;
78985;SDS011;68384;55.750;48.746;2023-07-02T02:49:49;5.50;;;4.68;;
78985;SDS011;68384;55.750;48.746;2023-07-02T02:50:52;6.10;;;4.80;;
78985;SDS011;68384;55.750;48.746;2023-07-02T02:51:55;5.95;;;4.35;;
78985;SDS011;68384;55.750;48.746;2023-07-02T02:52:59;9.07;;;5.55;;
78985;SDS011;68384;55.750;48.746;2023-07-02T02:54:04;5.70;;;4.70;;
78985;SDS011;68384;55.750;48.746;2023-07-02T02:55:08;6.40;;;4.30;;
78985;SDS011;68384;55.750;48.746;2023-07-02T02:56:12;6.03;;;4.18;;
78985;SDS011;68384;55.750;48.746;2023-07-02T02:57:16;5.03;;;4.15;;
78985;SDS011;68384;55.750;48.746;2023-07-02T02:58:19;5.78;;;4.60;;
78985;SDS011;68384;55.750;48.746;2023-07-02T02:59:24;5.95;;;5.15;;
78985;SDS011;68384;55.750;48.746;2023-07-02T03:00:27;5.55;;;4.63;;
78985;SDS011;68384;55.750;48.746;2023-07-02T03:01:31;7.28;;;4.70;;
78985;SDS011;68384;55.750;48.746;2023-07-02T03:02:34;5.97;;;4.35;;
78985;SDS011;68384;55.750;48.746;2023-07-02T03:03:39;5.85;;;4.13;;
78985;SDS011;68384;55.750;48.746;2023-07-02T03:04:48;5.50;;;4.47;;
78985;SDS011;68384;55.750;48.746;2023-07-02T03:05:52;6.70;;;4.70;;
78985;SDS011;68384;55.750;48.746;2023-07-02T03:06:55;5.80;;;4.13;;
78985;SDS011;68384;55.750;48.746;2023-07-02T03:07:59;4.97;;;4.45;;
78985;SDS011;68384;55.750;48.746;2023-07-02T03:09:03;4.60;;;4.05;;
78985;SDS011;68384;55.750;48.746;2023-07-02T03:10:08;5.90;;;4.78;;
78985;SDS011;68384;55.750;48.746;2023-07-02T03:11:11;7.05;;;4.65;;
78985;SDS011;68384;55.750;48.746;2023-07-02T03:12:15;6.03;;;4.35;;
78985;SDS011;68384;55.750;48.746;2023-07-02T03:13:17;5.45;;;4.53;;
78985;SDS011;68384;55.750;48.746;2023-07-02T03:14:21;8.18;;;4.57;;
78985;SDS011;68384;55.750;48.746;2023-07-02T03:15:24;5.68;;;4.68;;
78985;SDS011;68384;55.750;48.746;2023-07-02T03:16:28;8.27;;;5.15;;
78985;SDS011;68384;55.750;48.746;2023-07-02T03:17:31;5.05;;;4.38;;
78985;SDS011;68384;55.750;48.746;2023-07-02T03:18:36;5.40;;;4.72;;
78985;SDS011;68384;55.750;48.746;2023-07-02T03:19:38;5.95;;;4.95;;
78985;SDS011;68384;55.750;48.746;2023-07-02T03:20:42;7.05;;;4.97;;
78985;SDS011;68384;55.750;48.746;2023-07-02T03:21:45;5.82;;;4.97;;
78985;SDS011;68384;55.750;48.746;2023-07-02T03:22:49;5.25;;;4.60;;
78985;SDS011;68384;55.750;48.746;2023-07-02T03:23:52;6.40;;;5.20;;
78985;SDS011;68384;55.750;48.746;2023-07-02T03:24:58;6.50;;;4.50;;
78985;SDS011;68384;55.750;48.746;2023-07-02T03:26:00;5.78;;;4.85;;
78985;SDS011;68384;55.750;48.746;2023-07-02T03:27:05;5.60;;;5.00;;
78985;SDS011;68384;55.750;48.746;2023-07-02T03:28:08;7.70;;;5.15;;
78985;SDS011;68384;55.750;48.746;2023-07-02T03:29:12;9.23;;;4.70;;
78985;SDS011;68384;55.750;48.746;2023-07-02T03:30:15;6.03;;;4.97;;
78985;SDS011;68384;55.750;48.746;2023-07-02T03:31:20;6.13;;;4.60;;
78985;SDS011;68384;55.750;48.746;2023-07-02T03:32:23;7.97;;;4.70;;
78985;SDS011;68384;55.750;48.746;2023-07-02T03:33:27;5.78;;;4.75;;
78985;SDS011;68384;55.750;48.746;2023-07-02T03:34:30;6.47;;;4.97;;
78985;SDS011;68384;55.750;48.746;2023-07-02T03:35:34;10.80;;;5.30;;
78985;SDS011;68384;55.750;48.746;2023-07-02T03:36:37;5.22;;;4.47;;
78985;SDS011;68384;55.750;48.746;2023-07-02T03:37:41;5.47;;;4.88;;
78985;SDS011;68384;55.750;48.746;2023-07-02T03:38:45;7.57;;;4.85;;
78985;SDS011;68384;55.750;48.746;2023-07-02T03:39:49;5.63;;;4.75;;
78985;SDS011;68384;55.750;48.746;2023-07-02T03:40:54;5.18;;;4.45;;
78985;SDS011;68384;55.750;48.746;2023-07-02T03:41:58;7.13;;;4.40;;
78985;SDS011;68384;55.750;48.746;2023-07-02T03:43:01;5.72;;;4.32;;
78985;SDS011;68384;55.750;48.746;2023-07-02T03:44:04;8.85;;;6.35;;
78985;SDS011;68384;55.750;48.746;2023-07-02T03:45:07;6.47;;;4.90;;
78985;SDS011;68384;55.750;48.746;2023-07-02T03:46:12;7.25;;;5.20;;
78985;SDS011;68384;55.750;48.746;2023-07-02T03:47:15;6.47;;;4.85;;
78985;SDS011;68384;55.750;48.746;2023-07-02T03:48:21;6.10;;;4.97;;
78985;SDS011;68384;55.750;48.746;2023-07-02T03:49:24;8.32;;;5.53;;
78985;SDS011;68384;55.750;48.746;2023-07-02T03:50:28;6.80;;;5.10;;
78985;SDS011;68384;55.750;48.746;2023-07-02T03:51:31;6.22;;;5.15;;
78985;SDS011;68384;55.750;48.746;2023-07-02T03:52:35;7.53;;;5.88;;
78985;SDS011;68384;55.750;48.746;2023-07-02T03:53:38;5.43;;;4.78;;
78985;SDS011;68384;55.750;48.746;2023-07-02T03:54:42;7.32;;;5.38;;
78985;SDS011;68384;55.750;48.746;2023-07-02T03:55:44;7.72;;;5.15;;
78985;SDS011;68384;55.750;48.746;2023-07-02T03:56:50;7.57;;;5.72;;
78985;SDS011;68384;55.750;48.746;2023-07-02T03:57:53;6.10;;;4.88;;
78985;SDS011;68384;55.750;48.746;2023-07-02T03:58:57;8.35;;;5.15;;
78985;SDS011;68384;55.750;48.746;2023-07-02T03:59:59;7.78;;;4.90;;
78985;SDS011;68384;55.750;48.746;2023-07-02T04:01:07;7.13;;;4.72;;
78985;SDS011;68384;55.750;48.746;2023-07-02T04:02:10;6.07;;;4.65;;
78985;SDS011;68384;55.750;48.746;2023-07-02T04:03:14;7.10;;;5.30;;
78985;SDS011;68384;55.750;48.746;2023-07-02T04:04:16;7.28;;;5.13;;
78985;SDS011;68384;55.750;48.746;2023-07-02T04:05:21;7.60;;;5.30;;
78985;SDS011;68384;55.750;48.746;2023-07-02T04:06:24;7.60;;;5.55;;
78985;SDS011;68384;55.750;48.746;2023-07-02T04:07:28;8.57;;;5.82;;
78985;SDS011;68384;55.750;48.746;2023-07-02T04:08:32;9.18;;;5.97;;
78985;SDS011;68384;55.750;48.746;2023-07-02T04:09:36;7.47;;;5.35;;
78985;SDS011;68384;55.750;48.746;2023-07-02T04:10:39;8.93;;;4.97;;
78985;SDS011;68384;55.750;48.746;2023-07-02T04:11:43;7.03;;;5.43;;
78985;SDS011;68384;55.750;48.746;2023-07-02T04:12:47;6.43;;;5.00;;
78985;SDS011;68384;55.750;48.746;2023-07-02T04:13:51;6.45;;;4.90;;
78985;SDS011;68384;55.750;48.746;2023-07-02T04:14:54;8.32;;;5.43;;
78985;SDS011;68384;55.750;48.746;2023-07-02T04:15:58;7.07;;;5.35;;
78985;SDS011;68384;55.750;48.746;2023-07-02T04:17:01;11.80;;;5.70;;
78985;SDS011;68384;55.750;48.746;2023-07-02T04:18:06;7.55;;;4.63;;
78985;SDS011;68384;55.750;48.746;2023-07-02T04:19:09;6.80;;;5.05;;
78985;SDS011;68384;55.750;48.746;2023-07-02T04:20:16;6.55;;;4.88;;
78985;SDS011;68384;55.750;48.746;2023-07-02T04:21:20;6.80;;;5.13;;
78985;SDS011;68384;55.750;48.746;2023-07-02T04:22:24;7.25;;;5.40;;
78985;SDS011;68384;55.750;48.746;2023-07-02T04:23:27;10.52;;;5.22;;
78985;SDS011;68384;55.750;48.746;2023-07-02T04:24:32;6.75;;;5.13;;
78985;SDS011;68384;55.750;48.746;2023-07-02T04:25:35;7.40;;;5.40;;
78985;SDS011;68384;55.750;48.746;2023-07-02T04:27:00;7.80;;;4.90;;
78985;SDS011;68384;55.750;48.746;2023-07-02T04:28:25;6.95;;;5.13;;
78985;SDS011;68384;55.750;48.746;2023-07-02T04:29:28;5.80;;;4.80;;
78985;SDS011;68384;55.750;48.746;2023-07-02T04:30:32;6.82;;;4.30;;
78985;SDS011;68384;55.750;48.746;2023-07-02T04:31:35;9.70;;;5.93;;
78985;SDS011;68384;55.750;48.746;2023-07-02T04:32:39;6.68;;;5.10;;
78985;SDS011;68384;55.750;48.746;2023-07-02T04:33:43;5.75;;;4.40;;
78985;SDS011;68384;55.750;48.746;2023-07-02T04:34:46;5.53;;;4.40;;
78985;SDS011;68384;55.750;48.746;2023-07-02T04:35:49;5.20;;;4.32;;
78985;SDS011;68384;55.750;48.746;2023-07-02T04:36:53;7.88;;;5.10;;
78985;SDS011;68384;55.750;48.746;2023-07-02T04:37:56;7.50;;;4.82;;
78985;SDS011;68384;55.750;48.746;2023-07-02T04:39:00;7.35;;;5.10;;
78985;SDS011;68384;55.750;48.746;2023-07-02T04:40:04;6.75;;;4.82;;
78985;SDS011;68384;55.750;48.746;2023-07-02T04:41:11;5.40;;;4.55;;
78985;SDS011;68384;55.750;48.746;2023-07-02T04:42:14;8.52;;;4.60;;
78985;SDS011;68384;55.750;48.746;2023-07-02T04:43:18;7.75;;;4.97;;
78985;SDS011;68384;55.750;48.746;2023-07-02T04:44:22;6.40;;;4.85;;
78985;SDS011;68384;55.750;48.746;2023-07-02T04:45:31;6.93;;;4.30;;
78985;SDS011;68384;55.750;48.746;2023-07-02T04:46:38;5.38;;;3.92;;
78985;SDS011;68384;55.750;48.746;2023-07-02T04:47:42;5.18;;;3.75;;
78985;SDS011;68384;55.750;48.746;2023-07-02T04:48:45;4.65;;;3.50;;
78985;SDS011;68384;55.750;48.746;2023-07-02T04:49:49;5.47;;;3.60;;
78985;SDS011;68384;55.750;48.746;2023-07-02T04:50:52;4.38;;;3.85;;
78985;SDS011;68384;55.750;48.746;2023-07-02T04:51:56;5.70;;;4.13;;
78985;SDS011;68384;55.750;48.746;2023-07-02T04:53:00;5.85;;;4.10;;
78985;SDS011;68384;55.750;48.746;2023-07-02T04:54:03;6.35;;;4.18;;
78985;SDS011;68384;55.750;48.746;2023-07-02T04:55:07;6.38;;;4.20;;
78985;SDS011;68384;55.750;48.746;2023-07-02T04:56:11;5.47;;;4.20;;
78985;SDS011;68384;55.750;48.746;2023-07-02T04:57:14;4.82;;;3.78;;
78985;SDS011;68384;55.750;48.746;2023-07-02T04:58:18;6.15;;;4.53;;
78985;SDS011;68384;55.750;48.746;2023-07-02T04:59:23;7.10;;;4.57;;
78985;SDS011;68384;55.750;48.746;2023-07-02T05:00:27;7.40;;;5.18;;
78985;SDS011;68384;55.750;48.746;2023-07-02T05:01:29;7.45;;;4.75;;
78985;SDS011;68384;55.750;48.746;2023-07-02T05:02:34;8.35;;;5.50;;
78985;SDS011;68384;55.750;48.746;2023-07-02T05:03:37;8.73;;;6.00;;
78985;SDS011;68384;55.750;48.746;2023-07-02T05:04:41;10.57;;;6.13;;
78985;SDS011;68384;55.750;48.746;2023-07-02T05:05:44;8.88;;;5.47;;
78985;SDS011;68384;55.750;48.746;2023-07-02T05:06:48;8.20;;;5.63;;
78985;SDS011;68384;55.750;48.746;2023-07-02T05:07:51;10.18;;;5.53;;
78985;SDS011;68384;55.750;48.746;2023-07-02T05:08:55;8.45;;;5.47;;
78985;SDS011;68384;55.750;48.746;2023-07-02T05:09:58;7.85;;;4.85;;
78985;SDS011;68384;55.750;48.746;2023-07-02T05:11:02;5.85;;;4.50;;
78985;SDS011;68384;55.750;48.746;2023-07-02T05:12:05;8.32;;;5.30;;
78985;SDS011;68384;55.750;48.746;2023-07-02T05:13:10;7.20;;;5.07;;
78985;SDS011;68384;55.750;48.746;2023-07-02T05:14:13;7.95;;;5.07;;
78985;SDS011;68384;55.750;48.746;2023-07-02T05:15:18;9.38;;;5.38;;
78985;SDS011;68384;55.750;48.746;2023-07-02T05:16:21;8.38;;;5.70;;
78985;SDS011;68384;55.750;48.746;2023-07-02T05:17:25;6.50;;;5.05;;
78985;SDS011;68384;55.750;48.746;2023-07-02T05:19:32;7.93;;;5.47;;
78985;SDS011;68384;55.750;48.746;2023-07-02T05:20:35;8.35;;;5.00;;
78985;SDS011;68384;55.750;48.746;2023-07-02T05:21:40;7.65;;;5.38;;
78985;SDS011;68384;55.750;48.746;2023-07-02T05:22:43;10.43;;;6.13;;
78985;SDS011;68384;55.750;48.746;2023-07-02T05:23:47;7.63;;;5.25;;
78985;SDS011;68384;55.750;48.746;2023-07-02T05:24:50;6.88;;;5.00;;
78985;SDS011;68384;55.750;48.746;2023-07-02T05:25:54;9.00;;;5.43;;
78985;SDS011;68384;55.750;48.746;2023-07-02T05:26:57;6.18;;;5.45;;
78985;SDS011;68384;55.750;48.746;2023-07-02T05:28:01;8.15;;;5.95;;
78985;SDS011;68384;55.750;48.746;2023-07-02T05:29:05;8.25;;;5.25;;
78985;SDS011;68384;55.750;48.746;2023-07-02T05:30:08;9.48;;;5.93;;
78985;SDS011;68384;55.750;48.746;2023-07-02T05:31:14;10.20;;;5.82;;
78985;SDS011;68384;55.750;48.746;2023-07-02T05:32:17;11.18;;;5.38;;
78985;SDS011;68384;55.750;48.746;2023-07-02T05:33:21;9.13;;;5.47;;
78985;SDS011;68384;55.750;48.746;2023-07-02T05:34:24;11.50;;;6.07;;
78985;SDS011;68384;55.750;48.746;2023-07-02T05:35:28;8.50;;;6.00;;
78985;SDS011;68384;55.750;48.746;2023-07-02T05:36:31;9.48;;;5.93;;
78985;SDS011;68384;55.750;48.746;2023-07-02T05:37:36;11.32;;;6.00;;
78985;SDS011;68384;55.750;48.746;2023-07-02T05:38:39;11.90;;;6.43;;
78985;SDS011;68384;55.750;48.746;2023-07-02T05:39:43;10.80;;;6.18;;
78985;SDS011;68384;55.750;48.746;2023-07-02T05:40:46;11.48;;;6.40;;
78985;SDS011;68384;55.750;48.746;2023-07-02T05:41:51;10.68;;;6.25;;
78985;SDS011;68384;55.750;48.746;2023-07-02T05:42:53;11.75;;;5.85;;
78985;SDS011;68384;55.750;48.746;2023-07-02T05:43:58;11.68;;;6.22;;
78985;SDS011;68384;55.750;48.746;2023-07-02T05:45:00;15.88;;;6.75;;
78985;SDS011;68384;55.750;48.746;2023-07-02T05:46:06;12.30;;;6.28;;
78985;SDS011;68384;55.750;48.746;2023-07-02T05:47:10;10.23;;;5.70;;
78985;SDS011;68384;55.750;48.746;2023-07-02T05:48:14;9.57;;;5.22;;
78985;SDS011;68384;55.750;48.746;2023-07-02T05:49:17;8.57;;;5.00;;
78985;SDS011;68384;55.750;48.746;2023-07-02T05:50:21;8.85;;;5.30;;
78985;SDS011;68384;55.750;48.746;2023-07-02T05:51:24;6.15;;;5.25;;
78985;SDS011;68384;55.750;48.746;2023-07-02T05:52:28;7.13;;;5.22;;
78985;SDS011;68384;55.750;48.746;2023-07-02T05:53:31;7.25;;;4.97;;
78985;SDS011;68384;55.750;48.746;2023-07-02T05:54:38;8.65;;;5.03;;
78985;SDS011;68384;55.750;48.746;2023-07-02T05:55:41;7.85;;;5.00;;
78985;SDS011;68384;55.750;48.746;2023-07-02T05:56:46;8.88;;;5.07;;
78985;SDS011;68384;55.750;48.746;2023-07-02T05:57:48;5.88;;;4.57;;
78985;SDS011;68384;55.750;48.746;2023-07-02T05:58:53;6.57;;;5.20;;
78985;SDS011;68384;55.750;48.746;2023-07-02T05:59:56;12.60;;;4.60;;
78985;SDS011;68384;55.750;48.746;2023-07-02T06:01:00;8.43;;;4.85;;
78985;SDS011;68384;55.750;48.746;2023-07-02T06:02:03;6.07;;;4.50;;
78985;SDS011;68384;55.750;48.746;2023-07-02T06:03:09;6.75;;;4.32;;
78985;SDS011;68384;55.750;48.746;2023-07-02T06:04:11;12.25;;;6.57;;
78985;SDS011;68384;55.750;48.746;2023-07-02T06:05:16;7.07;;;4.82;;
78985;SDS011;68384;55.750;48.746;2023-07-02T06:06:20;9.25;;;4.90;;
78985;SDS011;68384;55.750;48.746;2023-07-02T06:07:25;6.53;;;4.72;;
78985;SDS011;68384;55.750;48.746;2023-07-02T06:08:28;5.55;;;4.25;;
78985;SDS011;68384;55.750;48.746;2023-07-02T06:09:32;8.77;;;4.35;;
78985;SDS011;68384;55.750;48.746;2023-07-02T06:10:35;5.18;;;4.18;;
78985;SDS011;68384;55.750;48.746;2023-07-02T06:11:40;6.65;;;4.40;;
78985;SDS011;68384;55.750;48.746;2023-07-02T06:12:43;6.68;;;5.20;;
78985;SDS011;68384;55.750;48.746;2023-07-02T06:13:47;7.20;;;4.90;;
78985;SDS011;68384;55.750;48.746;2023-07-02T06:14:50;7.00;;;4.35;;
78985;SDS011;68384;55.750;48.746;2023-07-02T06:15:54;6.10;;;4.28;;
78985;SDS011;68384;55.750;48.746;2023-07-02T06:16:56;5.95;;;4.07;;
78985;SDS011;68384;55.750;48.746;2023-07-02T06:18:01;5.95;;;4.60;;
78985;SDS011;68384;55.750;48.746;2023-07-02T06:19:06;5.78;;;4.03;;
78985;SDS011;68384;55.750;48.746;2023-07-02T06:20:10;5.43;;;3.55;;
78985;SDS011;68384;55.750;48.746;2023-07-02T06:21:14;4.60;;;3.30;;
78985;SDS011;68384;55.750;48.746;2023-07-02T06:22:18;4.95;;;3.40;;
78985;SDS011;68384;55.750;48.746;2023-07-02T06:23:21;5.90;;;4.53;;
78985;SDS011;68384;55.750;48.746;2023-07-02T06:24:25;6.03;;;3.50;;